sensor_id;sensor_type;location;lat;lon;timestamp;P1;durP1;ratioP1;P2;durP2;ratioP2
47519;SDS011;33252;48.122;11.538;2022-12-18T00:01:35;45.60;;;20.95;;
47519;SDS011;33252;48.122;11.538;2022-12-18T00:04:03;44.92;;;20.40;;
47519;SDS011;33252;48.122;11.538;2022-12-18T00:06:39;50.00;;;20.27;;
47519;SDS011;33252;48.122;11.538;2022-12-18T00:09:05;48.00;;;19.40;;
47519;SDS011;33252;48.122;11.538;2022-12-18T00:11:31;49.45;;;19.75;;
47519;SDS011;33252;48.122;11.538;2022-12-18T00:13:57;50.30;;;20.92;;
47519;SDS011;33252;48.122;11.538;2022-12-18T00:16:24;43.10;;;19.30;;
47519;SDS011;33252;48.122;11.538;2022-12-18T00:18:52;47.00;;;19.25;;
47519;SDS011;33252;48.122;11.538;2022-12-18T00:21:22;45.22;;;19.50;;
47519;SDS011;33252;48.122;11.538;2022-12-18T00:23:54;49.08;;;20.10;;
47519;SDS011;33252;48.122;11.538;2022-12-18T00:26:20;48.95;;;20.92;;
47519;SDS011;33252;48.122;11.538;2022-12-18T00:28:48;50.15;;;21.85;;
47519;SDS011;33252;48.122;11.538;2022-12-18T00:31:16;52.28;;;20.05;;
47519;SDS011;33252;48.122;11.538;2022-12-18T00:33:44;58.15;;;23.42;;
47519;SDS011;33252;48.122;11.538;2022-12-18T00:36:11;43.60;;;19.23;;
47519;SDS011;33252;48.122;11.538;2022-12-18T00:38:38;43.35;;;18.70;;
47519;SDS011;33252;48.122;11.538;2022-12-18T00:41:05;53.70;;;20.83;;
47519;SDS011;33252;48.122;11.538;2022-12-18T00:43:35;47.78;;;20.77;;
47519;SDS011;33252;48.122;11.538;2022-12-18T00:46:01;54.05;;;21.95;;
47519;SDS011;33252;48.122;11.538;2022-12-18T00:48:27;54.90;;;22.17;;
47519;SDS011;33252;48.122;11.538;2022-12-18T00:50:52;48.88;;;23.83;;
47519;SDS011;33252;48.122;11.538;2022-12-18T00:53:18;58.20;;;22.52;;
47519;SDS011;33252;48.122;11.538;2022-12-18T00:55:44;55.72;;;21.52;;
47519;SDS011;33252;48.122;11.538;2022-12-18T00:58:11;51.95;;;20.40;;
47519;SDS011;33252;48.122;11.538;2022-12-18T01:00:37;49.78;;;18.85;;
47519;SDS011;33252;48.122;11.538;2022-12-18T01:03:03;43.45;;;19.52;;
47519;SDS011;33252;48.122;11.538;2022-12-18T01:05:30;47.05;;;18.45;;
47519;SDS011;33252;48.122;11.538;2022-12-18T01:07:56;47.30;;;20.15;;
47519;SDS011;33252;48.122;11.538;2022-12-18T01:10:23;48.13;;;19.48;;
47519;SDS011;33252;48.122;11.538;2022-12-18T01:12:49;53.00;;;21.00;;
47519;SDS011;33252;48.122;11.538;2022-12-18T01:15:15;46.90;;;19.98;;
47519;SDS011;33252;48.122;11.538;2022-12-18T01:17:41;50.05;;;18.88;;
47519;SDS011;33252;48.122;11.538;2022-12-18T01:20:08;48.53;;;18.35;;
47519;SDS011;33252;48.122;11.538;2022-12-18T01:22:37;45.88;;;18.92;;
47519;SDS011;33252;48.122;11.538;2022-12-18T01:25:03;57.00;;;22.80;;
47519;SDS011;33252;48.122;11.538;2022-12-18T01:27:30;43.40;;;18.27;;
47519;SDS011;33252;48.122;11.538;2022-12-18T01:29:56;38.08;;;17.58;;
47519;SDS011;33252;48.122;11.538;2022-12-18T01:32:21;44.33;;;18.75;;
47519;SDS011;33252;48.122;11.538;2022-12-18T01:34:47;43.13;;;19.35;;
47519;SDS011;33252;48.122;11.538;2022-12-18T01:37:13;42.10;;;17.73;;
47519;SDS011;33252;48.122;11.538;2022-12-18T01:39:39;44.78;;;19.05;;
47519;SDS011;33252;48.122;11.538;2022-12-18T01:42:09;41.33;;;19.52;;
47519;SDS011;33252;48.122;11.538;2022-12-18T01:50:14;45.90;;;18.55;;
47519;SDS011;33252;48.122;11.538;2022-12-18T01:52:50;48.38;;;18.95;;
47519;SDS011;33252;48.122;11.538;2022-12-18T01:55:19;46.45;;;18.13;;
47519;SDS011;33252;48.122;11.538;2022-12-18T01:57:47;45.13;;;19.30;;
47519;SDS011;33252;48.122;11.538;2022-12-18T02:00:16;48.67;;;21.02;;
47519;SDS011;33252;48.122;11.538;2022-12-18T02:02:44;47.47;;;20.90;;
47519;SDS011;33252;48.122;11.538;2022-12-18T02:05:11;44.50;;;19.55;;
47519;SDS011;33252;48.122;11.538;2022-12-18T02:10:36;50.08;;;19.05;;
47519;SDS011;33252;48.122;11.538;2022-12-18T02:13:19;51.88;;;21.23;;
47519;SDS011;33252;48.122;11.538;2022-12-18T02:18:38;52.63;;;18.48;;
47519;SDS011;33252;48.122;11.538;2022-12-18T02:24:35;53.75;;;20.30;;
47519;SDS011;33252;48.122;11.538;2022-12-18T02:27:05;54.17;;;21.52;;
47519;SDS011;33252;48.122;11.538;2022-12-18T02:29:40;57.38;;;22.10;;
47519;SDS011;33252;48.122;11.538;2022-12-18T02:32:14;51.28;;;21.08;;
47519;SDS011;33252;48.122;11.538;2022-12-18T02:34:45;54.13;;;20.55;;
47519;SDS011;33252;48.122;11.538;2022-12-18T02:37:13;54.55;;;22.95;;
47519;SDS011;33252;48.122;11.538;2022-12-18T02:39:43;49.20;;;21.75;;
47519;SDS011;33252;48.122;11.538;2022-12-18T02:42:11;51.63;;;21.60;;
47519;SDS011;33252;48.122;11.538;2022-12-18T02:44:44;54.85;;;21.38;;
47519;SDS011;33252;48.122;11.538;2022-12-18T02:47:12;60.20;;;23.02;;
47519;SDS011;33252;48.122;11.538;2022-12-18T02:57:37;56.30;;;22.88;;
47519;SDS011;33252;48.122;11.538;2022-12-18T03:00:15;53.85;;;21.60;;
47519;SDS011;33252;48.122;11.538;2022-12-18T03:05:22;65.78;;;23.83;;
47519;SDS011;33252;48.122;11.538;2022-12-18T03:10:31;54.20;;;21.50;;
47519;SDS011;33252;48.122;11.538;2022-12-18T03:13:04;55.60;;;22.77;;
47519;SDS011;33252;48.122;11.538;2022-12-18T03:15:35;57.13;;;21.10;;
47519;SDS011;33252;48.122;11.538;2022-12-18T03:18:06;54.13;;;21.48;;
47519;SDS011;33252;48.122;11.538;2022-12-18T03:23:07;58.40;;;24.00;;
47519;SDS011;33252;48.122;11.538;2022-12-18T03:25:41;64.78;;;21.23;;
47519;SDS011;33252;48.122;11.538;2022-12-18T03:28:13;60.65;;;22.73;;
47519;SDS011;33252;48.122;11.538;2022-12-18T03:30:41;56.50;;;21.60;;
47519;SDS011;33252;48.122;11.538;2022-12-18T03:33:12;59.25;;;23.10;;
47519;SDS011;33252;48.122;11.538;2022-12-18T03:35:45;55.78;;;21.65;;
47519;SDS011;33252;48.122;11.538;2022-12-18T03:38:11;47.42;;;20.90;;
47519;SDS011;33252;48.122;11.538;2022-12-18T03:40:53;51.33;;;20.98;;
47519;SDS011;33252;48.122;11.538;2022-12-18T03:46:20;52.25;;;22.92;;
47519;SDS011;33252;48.122;11.538;2022-12-18T03:49:08;54.78;;;23.17;;
47519;SDS011;33252;48.122;11.538;2022-12-18T03:51:42;58.38;;;24.70;;
47519;SDS011;33252;48.122;11.538;2022-12-18T03:54:18;59.05;;;22.60;;
47519;SDS011;33252;48.122;11.538;2022-12-18T03:56:48;52.83;;;22.85;;
47519;SDS011;33252;48.122;11.538;2022-12-18T03:59:21;54.70;;;23.95;;
47519;SDS011;33252;48.122;11.538;2022-12-18T04:01:49;54.70;;;22.00;;
47519;SDS011;33252;48.122;11.538;2022-12-18T04:04:17;59.35;;;22.90;;
47519;SDS011;33252;48.122;11.538;2022-12-18T04:06:45;58.78;;;22.52;;
47519;SDS011;33252;48.122;11.538;2022-12-18T04:09:13;51.70;;;22.23;;
47519;SDS011;33252;48.122;11.538;2022-12-18T04:11:40;56.10;;;21.90;;
47519;SDS011;33252;48.122;11.538;2022-12-18T04:14:09;73.10;;;24.52;;
47519;SDS011;33252;48.122;11.538;2022-12-18T04:16:35;52.38;;;22.55;;
47519;SDS011;33252;48.122;11.538;2022-12-18T04:19:00;54.33;;;22.10;;
47519;SDS011;33252;48.122;11.538;2022-12-18T04:21:26;62.53;;;24.80;;
47519;SDS011;33252;48.122;11.538;2022-12-18T04:23:52;48.67;;;20.55;;
47519;SDS011;33252;48.122;11.538;2022-12-18T04:26:17;58.30;;;22.88;;
47519;SDS011;33252;48.122;11.538;2022-12-18T04:28:43;56.90;;;21.13;;
47519;SDS011;33252;48.122;11.538;2022-12-18T04:31:09;55.75;;;22.17;;
47519;SDS011;33252;48.122;11.538;2022-12-18T04:33:34;59.85;;;25.27;;
47519;SDS011;33252;48.122;11.538;2022-12-18T04:36:00;52.00;;;22.98;;
47519;SDS011;33252;48.122;11.538;2022-12-18T04:38:26;58.65;;;22.60;;
47519;SDS011;33252;48.122;11.538;2022-12-18T04:40:52;63.20;;;23.35;;
47519;SDS011;33252;48.122;11.538;2022-12-18T04:43:17;62.08;;;22.00;;
47519;SDS011;33252;48.122;11.538;2022-12-18T04:45:43;53.97;;;22.05;;
47519;SDS011;33252;48.122;11.538;2022-12-18T04:48:08;60.28;;;23.10;;
47519;SDS011;33252;48.122;11.538;2022-12-18T04:50:34;55.42;;;22.95;;
47519;SDS011;33252;48.122;11.538;2022-12-18T04:53:00;55.00;;;22.10;;
47519;SDS011;33252;48.122;11.538;2022-12-18T04:55:26;51.33;;;21.52;;
47519;SDS011;33252;48.122;11.538;2022-12-18T04:57:52;53.60;;;21.42;;
47519;SDS011;33252;48.122;11.538;2022-12-18T05:00:18;57.75;;;21.67;;
47519;SDS011;33252;48.122;11.538;2022-12-18T05:02:44;49.95;;;20.60;;
47519;SDS011;33252;48.122;11.538;2022-12-18T05:05:09;43.72;;;19.95;;
47519;SDS011;33252;48.122;11.538;2022-12-18T05:07:35;57.35;;;21.45;;
47519;SDS011;33252;48.122;11.538;2022-12-18T05:10:01;52.88;;;19.40;;
47519;SDS011;33252;48.122;11.538;2022-12-18T05:12:27;52.83;;;20.92;;
47519;SDS011;33252;48.122;11.538;2022-12-18T05:14:53;44.42;;;18.98;;
47519;SDS011;33252;48.122;11.538;2022-12-18T05:17:19;45.83;;;19.25;;
47519;SDS011;33252;48.122;11.538;2022-12-18T05:19:44;46.45;;;18.20;;
47519;SDS011;33252;48.122;11.538;2022-12-18T05:22:10;39.10;;;17.25;;
47519;SDS011;33252;48.122;11.538;2022-12-18T05:24:36;41.15;;;18.75;;
47519;SDS011;33252;48.122;11.538;2022-12-18T05:27:02;33.92;;;16.60;;
47519;SDS011;33252;48.122;11.538;2022-12-18T05:29:27;44.40;;;18.40;;
47519;SDS011;33252;48.122;11.538;2022-12-18T05:31:53;48.65;;;18.77;;
47519;SDS011;33252;48.122;11.538;2022-12-18T05:39:29;47.60;;;19.23;;
47519;SDS011;33252;48.122;11.538;2022-12-18T05:41:55;46.97;;;18.85;;
47519;SDS011;33252;48.122;11.538;2022-12-18T05:44:21;46.10;;;19.75;;
47519;SDS011;33252;48.122;11.538;2022-12-18T05:46:46;49.92;;;20.50;;
47519;SDS011;33252;48.122;11.538;2022-12-18T05:49:12;44.90;;;18.65;;
47519;SDS011;33252;48.122;11.538;2022-12-18T05:51:38;49.83;;;19.02;;
47519;SDS011;33252;48.122;11.538;2022-12-18T05:54:03;37.22;;;18.27;;
47519;SDS011;33252;48.122;11.538;2022-12-18T05:56:29;41.42;;;17.95;;
47519;SDS011;33252;48.122;11.538;2022-12-18T05:58:54;41.90;;;17.42;;
47519;SDS011;33252;48.122;11.538;2022-12-18T06:01:21;44.40;;;18.33;;
47519;SDS011;33252;48.122;11.538;2022-12-18T06:03:49;42.00;;;15.82;;
47519;SDS011;33252;48.122;11.538;2022-12-18T06:06:16;42.13;;;16.77;;
47519;SDS011;33252;48.122;11.538;2022-12-18T06:08:47;46.00;;;19.67;;
47519;SDS011;33252;48.122;11.538;2022-12-18T06:11:15;45.65;;;19.48;;
47519;SDS011;33252;48.122;11.538;2022-12-18T06:13:42;45.65;;;18.75;;
47519;SDS011;33252;48.122;11.538;2022-12-18T06:16:07;41.78;;;18.00;;
47519;SDS011;33252;48.122;11.538;2022-12-18T06:18:33;48.78;;;20.45;;
47519;SDS011;33252;48.122;11.538;2022-12-18T06:20:59;38.03;;;17.48;;
47519;SDS011;33252;48.122;11.538;2022-12-18T06:23:25;49.10;;;19.83;;
47519;SDS011;33252;48.122;11.538;2022-12-18T06:25:51;43.20;;;19.05;;
47519;SDS011;33252;48.122;11.538;2022-12-18T06:28:17;43.03;;;18.38;;
47519;SDS011;33252;48.122;11.538;2022-12-18T06:30:43;44.95;;;19.65;;
47519;SDS011;33252;48.122;11.538;2022-12-18T06:33:10;41.03;;;17.63;;
47519;SDS011;33252;48.122;11.538;2022-12-18T06:35:36;45.83;;;20.77;;
47519;SDS011;33252;48.122;11.538;2022-12-18T06:38:02;43.22;;;18.60;;
47519;SDS011;33252;48.122;11.538;2022-12-18T06:40:27;43.08;;;18.17;;
47519;SDS011;33252;48.122;11.538;2022-12-18T06:42:53;47.08;;;18.95;;
47519;SDS011;33252;48.122;11.538;2022-12-18T06:45:19;43.55;;;18.23;;
47519;SDS011;33252;48.122;11.538;2022-12-18T06:47:44;44.08;;;19.08;;
47519;SDS011;33252;48.122;11.538;2022-12-18T06:50:10;46.45;;;19.73;;
47519;SDS011;33252;48.122;11.538;2022-12-18T06:52:36;43.20;;;17.05;;
47519;SDS011;33252;48.122;11.538;2022-12-18T06:55:04;41.78;;;18.73;;
47519;SDS011;33252;48.122;11.538;2022-12-18T06:57:30;40.80;;;18.23;;
47519;SDS011;33252;48.122;11.538;2022-12-18T06:59:55;46.45;;;19.23;;
47519;SDS011;33252;48.122;11.538;2022-12-18T07:02:21;43.03;;;17.75;;
47519;SDS011;33252;48.122;11.538;2022-12-18T07:04:47;43.25;;;17.80;;
47519;SDS011;33252;48.122;11.538;2022-12-18T07:07:12;47.28;;;18.98;;
47519;SDS011;33252;48.122;11.538;2022-12-18T07:09:38;44.60;;;18.25;;
47519;SDS011;33252;48.122;11.538;2022-12-18T07:12:04;47.38;;;17.88;;
47519;SDS011;33252;48.122;11.538;2022-12-18T07:14:29;39.05;;;16.35;;
47519;SDS011;33252;48.122;11.538;2022-12-18T07:16:55;42.75;;;18.13;;
47519;SDS011;33252;48.122;11.538;2022-12-18T07:19:21;47.30;;;18.73;;
47519;SDS011;33252;48.122;11.538;2022-12-18T07:21:46;44.55;;;18.45;;
47519;SDS011;33252;48.122;11.538;2022-12-18T07:24:12;43.20;;;16.77;;
47519;SDS011;33252;48.122;11.538;2022-12-18T07:26:38;43.47;;;17.85;;
47519;SDS011;33252;48.122;11.538;2022-12-18T07:29:03;44.92;;;17.60;;
47519;SDS011;33252;48.122;11.538;2022-12-18T07:31:29;36.25;;;16.55;;
47519;SDS011;33252;48.122;11.538;2022-12-18T07:33:54;41.22;;;16.88;;
47519;SDS011;33252;48.122;11.538;2022-12-18T07:36:20;47.20;;;17.80;;
47519;SDS011;33252;48.122;11.538;2022-12-18T07:38:47;41.72;;;17.02;;
47519;SDS011;33252;48.122;11.538;2022-12-18T07:41:14;35.35;;;15.65;;
47519;SDS011;33252;48.122;11.538;2022-12-18T07:43:40;42.78;;;17.05;;
47519;SDS011;33252;48.122;11.538;2022-12-18T07:46:06;42.97;;;16.60;;
47519;SDS011;33252;48.122;11.538;2022-12-18T07:48:33;39.22;;;16.88;;
47519;SDS011;33252;48.122;11.538;2022-12-18T07:50:59;43.05;;;17.65;;
47519;SDS011;33252;48.122;11.538;2022-12-18T07:53:26;34.78;;;15.35;;
47519;SDS011;33252;48.122;11.538;2022-12-18T07:55:59;43.17;;;17.60;;
47519;SDS011;33252;48.122;11.538;2022-12-18T07:58:26;38.63;;;16.98;;
47519;SDS011;33252;48.122;11.538;2022-12-18T08:00:52;42.88;;;17.60;;
47519;SDS011;33252;48.122;11.538;2022-12-18T08:03:18;47.05;;;18.88;;
47519;SDS011;33252;48.122;11.538;2022-12-18T08:05:44;42.08;;;17.15;;
47519;SDS011;33252;48.122;11.538;2022-12-18T08:08:10;44.28;;;18.83;;
47519;SDS011;33252;48.122;11.538;2022-12-18T08:10:35;41.45;;;17.20;;
47519;SDS011;33252;48.122;11.538;2022-12-18T08:13:02;41.33;;;18.17;;
47519;SDS011;33252;48.122;11.538;2022-12-18T08:15:28;42.08;;;16.55;;
47519;SDS011;33252;48.122;11.538;2022-12-18T08:17:56;38.63;;;16.25;;
47519;SDS011;33252;48.122;11.538;2022-12-18T08:20:22;40.38;;;17.67;;
47519;SDS011;33252;48.122;11.538;2022-12-18T08:22:47;45.75;;;17.63;;
47519;SDS011;33252;48.122;11.538;2022-12-18T08:25:13;38.40;;;17.20;;
47519;SDS011;33252;48.122;11.538;2022-12-18T08:27:39;42.45;;;18.33;;
47519;SDS011;33252;48.122;11.538;2022-12-18T08:30:05;43.30;;;18.52;;
47519;SDS011;33252;48.122;11.538;2022-12-18T08:32:31;43.15;;;18.63;;
47519;SDS011;33252;48.122;11.538;2022-12-18T08:35:00;48.05;;;19.05;;
47519;SDS011;33252;48.122;11.538;2022-12-18T08:37:26;42.15;;;17.45;;
47519;SDS011;33252;48.122;11.538;2022-12-18T08:39:52;45.20;;;18.42;;
47519;SDS011;33252;48.122;11.538;2022-12-18T08:42:17;36.20;;;16.88;;
47519;SDS011;33252;48.122;11.538;2022-12-18T08:45:02;44.30;;;16.50;;
47519;SDS011;33252;48.122;11.538;2022-12-18T08:47:28;39.60;;;16.20;;
47519;SDS011;33252;48.122;11.538;2022-12-18T08:49:53;39.38;;;17.90;;
47519;SDS011;33252;48.122;11.538;2022-12-18T08:52:19;39.50;;;18.33;;
47519;SDS011;33252;48.122;11.538;2022-12-18T08:54:45;35.65;;;16.23;;
47519;SDS011;33252;48.122;11.538;2022-12-18T08:57:11;36.40;;;17.00;;
47519;SDS011;33252;48.122;11.538;2022-12-18T08:59:36;40.53;;;18.83;;
47519;SDS011;33252;48.122;11.538;2022-12-18T09:02:02;45.58;;;17.70;;
47519;SDS011;33252;48.122;11.538;2022-12-18T09:04:28;44.53;;;19.35;;
47519;SDS011;33252;48.122;11.538;2022-12-18T09:06:53;42.30;;;18.23;;
47519;SDS011;33252;48.122;11.538;2022-12-18T09:09:19;48.95;;;19.70;;
47519;SDS011;33252;48.122;11.538;2022-12-18T09:11:44;40.13;;;17.08;;
47519;SDS011;33252;48.122;11.538;2022-12-18T09:14:10;53.42;;;21.27;;
47519;SDS011;33252;48.122;11.538;2022-12-18T09:16:36;43.55;;;17.58;;
47519;SDS011;33252;48.122;11.538;2022-12-18T09:19:02;38.92;;;16.70;;
47519;SDS011;33252;48.122;11.538;2022-12-18T09:21:33;37.65;;;15.65;;
47519;SDS011;33252;48.122;11.538;2022-12-18T09:23:59;40.13;;;15.63;;
47519;SDS011;33252;48.122;11.538;2022-12-18T09:26:25;35.72;;;17.17;;
47519;SDS011;33252;48.122;11.538;2022-12-18T09:28:52;36.55;;;15.85;;
47519;SDS011;33252;48.122;11.538;2022-12-18T09:31:20;32.33;;;14.57;;
47519;SDS011;33252;48.122;11.538;2022-12-18T09:33:46;39.97;;;16.85;;
47519;SDS011;33252;48.122;11.538;2022-12-18T09:36:13;37.45;;;16.77;;
47519;SDS011;33252;48.122;11.538;2022-12-18T09:38:40;38.13;;;17.23;;
47519;SDS011;33252;48.122;11.538;2022-12-18T09:44:15;34.58;;;13.68;;
47519;SDS011;33252;48.122;11.538;2022-12-18T09:46:47;35.10;;;15.68;;
47519;SDS011;33252;48.122;11.538;2022-12-18T09:49:31;36.92;;;17.25;;
47519;SDS011;33252;48.122;11.538;2022-12-18T09:52:05;35.95;;;16.98;;
47519;SDS011;33252;48.122;11.538;2022-12-18T09:55:11;41.03;;;17.40;;
47519;SDS011;33252;48.122;11.538;2022-12-18T09:57:47;36.80;;;16.73;;
47519;SDS011;33252;48.122;11.538;2022-12-18T10:00:21;38.30;;;16.98;;
47519;SDS011;33252;48.122;11.538;2022-12-18T10:02:48;32.22;;;15.18;;
47519;SDS011;33252;48.122;11.538;2022-12-18T10:05:17;39.58;;;18.15;;
47519;SDS011;33252;48.122;11.538;2022-12-18T10:10:50;40.10;;;17.83;;
47519;SDS011;33252;48.122;11.538;2022-12-18T10:13:20;39.25;;;16.90;;
47519;SDS011;33252;48.122;11.538;2022-12-18T10:16:22;37.72;;;15.60;;
47519;SDS011;33252;48.122;11.538;2022-12-18T10:18:48;32.53;;;14.65;;
47519;SDS011;33252;48.122;11.538;2022-12-18T10:21:34;37.13;;;16.83;;
47519;SDS011;33252;48.122;11.538;2022-12-18T10:24:24;33.42;;;15.85;;
47519;SDS011;33252;48.122;11.538;2022-12-18T10:26:52;45.92;;;17.95;;
47519;SDS011;33252;48.122;11.538;2022-12-18T10:29:21;39.45;;;16.40;;
47519;SDS011;33252;48.122;11.538;2022-12-18T10:31:47;37.88;;;16.55;;
47519;SDS011;33252;48.122;11.538;2022-12-18T10:34:16;36.22;;;16.95;;
47519;SDS011;33252;48.122;11.538;2022-12-18T10:36:41;40.97;;;16.95;;
47519;SDS011;33252;48.122;11.538;2022-12-18T10:39:14;38.42;;;16.48;;
47519;SDS011;33252;48.122;11.538;2022-12-18T10:41:50;41.10;;;17.77;;
47519;SDS011;33252;48.122;11.538;2022-12-18T10:44:20;40.08;;;16.73;;
47519;SDS011;33252;48.122;11.538;2022-12-18T10:46:53;42.28;;;17.27;;
47519;SDS011;33252;48.122;11.538;2022-12-18T10:49:28;35.50;;;17.98;;
47519;SDS011;33252;48.122;11.538;2022-12-18T10:54:31;30.88;;;15.80;;
47519;SDS011;33252;48.122;11.538;2022-12-18T11:02:46;38.92;;;15.20;;
47519;SDS011;33252;48.122;11.538;2022-12-18T11:05:25;36.65;;;15.60;;
47519;SDS011;33252;48.122;11.538;2022-12-18T11:07:56;37.50;;;15.93;;
47519;SDS011;33252;48.122;11.538;2022-12-18T11:10:30;35.05;;;16.55;;
47519;SDS011;33252;48.122;11.538;2022-12-18T11:13:11;36.67;;;14.27;;
47519;SDS011;33252;48.122;11.538;2022-12-18T11:15:42;35.08;;;15.45;;
47519;SDS011;33252;48.122;11.538;2022-12-18T11:18:15;41.85;;;16.17;;
47519;SDS011;33252;48.122;11.538;2022-12-18T11:21:06;35.30;;;15.30;;
47519;SDS011;33252;48.122;11.538;2022-12-18T11:23:34;34.97;;;15.13;;
47519;SDS011;33252;48.122;11.538;2022-12-18T11:26:02;39.75;;;17.52;;
47519;SDS011;33252;48.122;11.538;2022-12-18T11:36:45;31.85;;;14.63;;
47519;SDS011;33252;48.122;11.538;2022-12-18T11:39:15;38.97;;;16.40;;
47519;SDS011;33252;48.122;11.538;2022-12-18T11:50:14;42.72;;;16.60;;
47519;SDS011;33252;48.122;11.538;2022-12-18T11:52:43;36.58;;;16.27;;
47519;SDS011;33252;48.122;11.538;2022-12-18T11:55:13;36.70;;;16.42;;
47519;SDS011;33252;48.122;11.538;2022-12-18T12:00:50;37.13;;;16.95;;
47519;SDS011;33252;48.122;11.538;2022-12-18T12:08:17;34.50;;;16.77;;
47519;SDS011;33252;48.122;11.538;2022-12-18T12:11:02;38.67;;;15.82;;
47519;SDS011;33252;48.122;11.538;2022-12-18T12:18:48;36.20;;;18.42;;
47519;SDS011;33252;48.122;11.538;2022-12-18T12:21:37;35.85;;;15.90;;
47519;SDS011;33252;48.122;11.538;2022-12-18T12:40:58;34.80;;;15.23;;
47519;SDS011;33252;48.122;11.538;2022-12-18T12:43:32;33.17;;;14.88;;
47519;SDS011;33252;48.122;11.538;2022-12-18T12:46:10;36.47;;;15.88;;
47519;SDS011;33252;48.122;11.538;2022-12-18T12:48:51;38.33;;;15.73;;
47519;SDS011;33252;48.122;11.538;2022-12-18T12:51:31;32.53;;;14.82;;
47519;SDS011;33252;48.122;11.538;2022-12-18T12:54:03;37.88;;;16.90;;
47519;SDS011;33252;48.122;11.538;2022-12-18T12:56:54;36.50;;;15.00;;
47519;SDS011;33252;48.122;11.538;2022-12-18T12:59:52;35.38;;;14.88;;
47519;SDS011;33252;48.122;11.538;2022-12-18T13:07:53;32.63;;;16.05;;
47519;SDS011;33252;48.122;11.538;2022-12-18T13:13:04;31.70;;;14.95;;
47519;SDS011;33252;48.122;11.538;2022-12-18T13:20:39;33.40;;;15.45;;
47519;SDS011;33252;48.122;11.538;2022-12-18T13:25:55;34.35;;;15.00;;
47519;SDS011;33252;48.122;11.538;2022-12-18T13:31:13;30.70;;;13.63;;
47519;SDS011;33252;48.122;11.538;2022-12-18T13:33:48;34.45;;;15.45;;
47519;SDS011;33252;48.122;11.538;2022-12-18T13:36:30;33.97;;;15.07;;
47519;SDS011;33252;48.122;11.538;2022-12-18T13:41:39;34.83;;;15.68;;
47519;SDS011;33252;48.122;11.538;2022-12-18T13:46:56;35.70;;;14.88;;
47519;SDS011;33252;48.122;11.538;2022-12-18T13:55:02;27.25;;;13.52;;
47519;SDS011;33252;48.122;11.538;2022-12-18T13:57:33;30.75;;;13.25;;
47519;SDS011;33252;48.122;11.538;2022-12-18T14:02:47;32.30;;;14.02;;
47519;SDS011;33252;48.122;11.538;2022-12-18T14:05:27;32.03;;;14.07;;
47519;SDS011;33252;48.122;11.538;2022-12-18T14:07:59;31.13;;;13.75;;
47519;SDS011;33252;48.122;11.538;2022-12-18T14:10:29;40.30;;;15.90;;
47519;SDS011;33252;48.122;11.538;2022-12-18T14:12:55;32.00;;;13.82;;
47519;SDS011;33252;48.122;11.538;2022-12-18T14:15:36;37.15;;;16.10;;
47519;SDS011;33252;48.122;11.538;2022-12-18T14:20:50;32.28;;;14.60;;
47519;SDS011;33252;48.122;11.538;2022-12-18T14:26:01;39.45;;;17.30;;
47519;SDS011;33252;48.122;11.538;2022-12-18T14:28:29;36.70;;;15.30;;
47519;SDS011;33252;48.122;11.538;2022-12-18T14:30:56;35.15;;;15.98;;
47519;SDS011;33252;48.122;11.538;2022-12-18T14:33:22;38.83;;;15.50;;
47519;SDS011;33252;48.122;11.538;2022-12-18T14:35:57;39.63;;;14.85;;
47519;SDS011;33252;48.122;11.538;2022-12-18T14:38:26;41.22;;;15.82;;
47519;SDS011;33252;48.122;11.538;2022-12-18T14:41:12;37.67;;;15.68;;
47519;SDS011;33252;48.122;11.538;2022-12-18T14:43:40;36.25;;;15.20;;
47519;SDS011;33252;48.122;11.538;2022-12-18T14:48:57;35.72;;;15.52;;
47519;SDS011;33252;48.122;11.538;2022-12-18T14:51:29;33.83;;;15.77;;
47519;SDS011;33252;48.122;11.538;2022-12-18T14:53:57;39.60;;;15.63;;
47519;SDS011;33252;48.122;11.538;2022-12-18T14:59:01;37.58;;;16.05;;
47519;SDS011;33252;48.122;11.538;2022-12-18T15:01:39;36.50;;;14.90;;
47519;SDS011;33252;48.122;11.538;2022-12-18T15:04:34;37.47;;;16.98;;
47519;SDS011;33252;48.122;11.538;2022-12-18T15:09:42;40.30;;;17.80;;
47519;SDS011;33252;48.122;11.538;2022-12-18T15:12:34;36.50;;;15.68;;
47519;SDS011;33252;48.122;11.538;2022-12-18T15:15:01;35.38;;;16.13;;
47519;SDS011;33252;48.122;11.538;2022-12-18T15:17:27;38.40;;;16.98;;
47519;SDS011;33252;48.122;11.538;2022-12-18T15:19:58;41.63;;;16.48;;
47519;SDS011;33252;48.122;11.538;2022-12-18T15:22:34;33.92;;;16.75;;
47519;SDS011;33252;48.122;11.538;2022-12-18T15:25:01;35.33;;;15.63;;
47519;SDS011;33252;48.122;11.538;2022-12-18T15:27:33;44.13;;;18.13;;
47519;SDS011;33252;48.122;11.538;2022-12-18T15:30:02;40.28;;;17.58;;
47519;SDS011;33252;48.122;11.538;2022-12-18T15:32:35;40.25;;;17.70;;
47519;SDS011;33252;48.122;11.538;2022-12-18T15:35:03;40.42;;;18.75;;
47519;SDS011;33252;48.122;11.538;2022-12-18T15:37:41;39.05;;;18.13;;
47519;SDS011;33252;48.122;11.538;2022-12-18T15:40:08;38.15;;;16.42;;
47519;SDS011;33252;48.122;11.538;2022-12-18T15:42:41;41.80;;;17.75;;
47519;SDS011;33252;48.122;11.538;2022-12-18T15:45:25;41.92;;;17.75;;
47519;SDS011;33252;48.122;11.538;2022-12-18T15:47:52;42.95;;;18.45;;
47519;SDS011;33252;48.122;11.538;2022-12-18T15:50:17;41.72;;;18.10;;
47519;SDS011;33252;48.122;11.538;2022-12-18T15:52:44;37.92;;;16.98;;
47519;SDS011;33252;48.122;11.538;2022-12-18T15:55:15;43.75;;;15.98;;
47519;SDS011;33252;48.122;11.538;2022-12-18T15:58:01;37.78;;;16.42;;
47519;SDS011;33252;48.122;11.538;2022-12-18T16:00:27;37.55;;;16.13;;
47519;SDS011;33252;48.122;11.538;2022-12-18T16:02:53;41.63;;;18.63;;
47519;SDS011;33252;48.122;11.538;2022-12-18T16:05:19;39.78;;;21.35;;
47519;SDS011;33252;48.122;11.538;2022-12-18T16:07:46;41.85;;;19.50;;
47519;SDS011;33252;48.122;11.538;2022-12-18T16:10:12;42.28;;;18.67;;
47519;SDS011;33252;48.122;11.538;2022-12-18T16:12:38;37.47;;;17.35;;
47519;SDS011;33252;48.122;11.538;2022-12-18T16:15:04;40.38;;;18.42;;
47519;SDS011;33252;48.122;11.538;2022-12-18T16:17:31;40.33;;;17.05;;
47519;SDS011;33252;48.122;11.538;2022-12-18T16:19:56;37.85;;;16.30;;
47519;SDS011;33252;48.122;11.538;2022-12-18T16:22:26;41.00;;;16.73;;
47519;SDS011;33252;48.122;11.538;2022-12-18T16:24:53;45.60;;;18.13;;
47519;SDS011;33252;48.122;11.538;2022-12-18T16:27:20;41.72;;;17.65;;
47519;SDS011;33252;48.122;11.538;2022-12-18T16:29:46;45.72;;;19.00;;
47519;SDS011;33252;48.122;11.538;2022-12-18T16:32:16;40.13;;;17.33;;
47519;SDS011;33252;48.122;11.538;2022-12-18T16:34:43;41.28;;;17.55;;
47519;SDS011;33252;48.122;11.538;2022-12-18T16:37:10;38.13;;;18.20;;
47519;SDS011;33252;48.122;11.538;2022-12-18T16:39:37;39.67;;;17.30;;
47519;SDS011;33252;48.122;11.538;2022-12-18T16:42:05;39.75;;;16.95;;
47519;SDS011;33252;48.122;11.538;2022-12-18T16:44:41;36.45;;;17.98;;
47519;SDS011;33252;48.122;11.538;2022-12-18T16:47:07;42.45;;;17.95;;